sensor_id;sensor_type;location;lat;lon;timestamp;pressure;altitude;pressure_sealevel;temperature;humidity
64388;BME280;50709;52.648;4.764;2023-05-10T00:00:55;100869.34;;;17.72;67.86
64388;BME280;50709;52.648;4.764;2023-05-10T00:03:20;100863.50;;;17.93;67.98
64388;BME280;50709;52.648;4.764;2023-05-10T00:05:45;100859.31;;;17.85;67.06
64388;BME280;50709;52.648;4.764;2023-05-10T00:08:11;100861.91;;;17.86;67.35
64388;BME280;50709;52.648;4.764;2023-05-10T00:10:36;100858.41;;;17.86;67.70
64388;BME280;50709;52.648;4.764;2023-05-10T00:13:02;100848.25;;;17.70;68.34
64388;BME280;50709;52.648;4.764;2023-05-10T00:15:28;100839.25;;;17.77;67.71
64388;BME280;50709;52.648;4.764;2023-05-10T00:17:55;100840.53;;;17.62;68.16
64388;BME280;50709;52.648;4.764;2023-05-10T00:20:21;100846.19;;;17.48;68.44
64388;BME280;50709;52.648;4.764;2023-05-10T00:22:46;100849.56;;;17.55;68.82
64388;BME280;50709;52.648;4.764;2023-05-10T00:25:11;100853.22;;;17.49;68.08
64388;BME280;50709;52.648;4.764;2023-05-10T00:27:37;100849.00;;;17.42;68.85
64388;BME280;50709;52.648;4.764;2023-05-10T00:30:03;100854.59;;;17.64;68.31
64388;BME280;50709;52.648;4.764;2023-05-10T00:32:28;100852.59;;;17.40;68.34
64388;BME280;50709;52.648;4.764;2023-05-10T00:34:53;100854.63;;;17.63;68.33
64388;BME280;50709;52.648;4.764;2023-05-10T00:37:19;100858.22;;;17.60;68.17
64388;BME280;50709;52.648;4.764;2023-05-10T00:39:45;100858.22;;;17.60;68.66
64388;BME280;50709;52.648;4.764;2023-05-10T00:42:10;100848.84;;;17.48;68.58
64388;BME280;50709;52.648;4.764;2023-05-10T00:44:36;100838.66;;;17.35;68.53
64388;BME280;50709;52.648;4.764;2023-05-10T00:47:01;100843.06;;;17.67;68.22
64388;BME280;50709;52.648;4.764;2023-05-10T00:49:26;100786.91;;;17.29;66.94
64388;BME280;50709;52.648;4.764;2023-05-10T00:51:52;100845.22;;;17.53;68.06
64388;BME280;50709;52.648;4.764;2023-05-10T00:54:18;100849.69;;;17.51;68.54
64388;BME280;50709;52.648;4.764;2023-05-10T00:56:43;100854.03;;;17.53;67.68
64388;BME280;50709;52.648;4.764;2023-05-10T00:59:17;100845.03;;;17.60;68.02
64388;BME280;50709;52.648;4.764;2023-05-10T01:01:44;100848.00;;;17.48;67.72
64388;BME280;50709;52.648;4.764;2023-05-10T01:04:14;100868.91;;;17.21;68.86
64388;BME280;50709;52.648;4.764;2023-05-10T01:06:40;100842.81;;;17.43;69.19
64388;BME280;50709;52.648;4.764;2023-05-10T01:09:06;100858.91;;;17.67;68.54
64388;BME280;50709;52.648;4.764;2023-05-10T01:11:35;100851.94;;;17.64;67.09
64388;BME280;50709;52.648;4.764;2023-05-10T01:14:02;100865.56;;;17.82;67.71
64388;BME280;50709;52.648;4.764;2023-05-10T01:16:29;100869.38;;;18.05;66.45
64388;BME280;50709;52.648;4.764;2023-05-10T01:18:57;100847.59;;;17.62;67.06
64388;BME280;50709;52.648;4.764;2023-05-10T01:21:53;100850.03;;;18.03;66.40
64388;BME280;50709;52.648;4.764;2023-05-10T01:30:22;100879.91;;;17.72;67.37
64388;BME280;50709;52.648;4.764;2023-05-10T01:33:01;100871.53;;;17.89;67.51
64388;BME280;50709;52.648;4.764;2023-05-10T01:35:40;100882.03;;;17.92;66.28
64388;BME280;50709;52.648;4.764;2023-05-10T01:43:59;100850.94;;;18.02;66.28
64388;BME280;50709;52.648;4.764;2023-05-10T01:46:34;100874.56;;;18.08;65.57
64388;BME280;50709;52.648;4.764;2023-05-10T01:49:02;100874.81;;;17.98;65.79
64388;BME280;50709;52.648;4.764;2023-05-10T01:51:37;100882.69;;;18.31;65.26
64388;BME280;50709;52.648;4.764;2023-05-10T01:54:05;100864.94;;;18.35;65.44
64388;BME280;50709;52.648;4.764;2023-05-10T01:56:33;100866.16;;;18.23;63.60
64388;BME280;50709;52.648;4.764;2023-05-10T01:59:06;100871.28;;;17.65;64.66
64388;BME280;50709;52.648;4.764;2023-05-10T02:01:36;100884.22;;;18.09;66.11
64388;BME280;50709;52.648;4.764;2023-05-10T02:04:03;100871.16;;;18.03;65.64
64388;BME280;50709;52.648;4.764;2023-05-10T02:06:30;100870.44;;;17.97;66.05
64388;BME280;50709;52.648;4.764;2023-05-10T02:08:57;100882.56;;;17.72;66.79
64388;BME280;50709;52.648;4.764;2023-05-10T02:11:24;100885.66;;;17.88;67.17
64388;BME280;50709;52.648;4.764;2023-05-10T02:13:51;100887.94;;;18.02;65.99
64388;BME280;50709;52.648;4.764;2023-05-10T02:16:22;100892.56;;;17.93;65.92
64388;BME280;50709;52.648;4.764;2023-05-10T02:18:51;100880.56;;;17.81;66.17
64388;BME280;50709;52.648;4.764;2023-05-10T02:21:17;100864.69;;;17.81;66.14
64388;BME280;50709;52.648;4.764;2023-05-10T02:23:44;100898.97;;;18.16;65.73
64388;BME280;50709;52.648;4.764;2023-05-10T02:26:11;100909.25;;;17.95;64.99
64388;BME280;50709;52.648;4.764;2023-05-10T02:28:39;100902.06;;;17.66;65.07
64388;BME280;50709;52.648;4.764;2023-05-10T02:31:06;100905.13;;;17.83;66.40
64388;BME280;50709;52.648;4.764;2023-05-10T02:33:33;100906.25;;;17.75;66.27
64388;BME280;50709;52.648;4.764;2023-05-10T02:36:00;100921.91;;;17.48;66.23
64388;BME280;50709;52.648;4.764;2023-05-10T02:38:27;100913.16;;;17.46;67.14
64388;BME280;50709;52.648;4.764;2023-05-10T02:40:53;100909.47;;;17.52;66.19
64388;BME280;50709;52.648;4.764;2023-05-10T02:43:22;100892.34;;;17.68;67.03
64388;BME280;50709;52.648;4.764;2023-05-10T02:45:48;100899.41;;;17.33;65.98
64388;BME280;50709;52.648;4.764;2023-05-10T02:48:14;100925.63;;;17.75;66.90
64388;BME280;50709;52.648;4.764;2023-05-10T02:50:44;100920.13;;;17.83;66.34
64388;BME280;50709;52.648;4.764;2023-05-10T02:53:15;100934.31;;;17.44;65.75
64388;BME280;50709;52.648;4.764;2023-05-10T02:55:44;100922.44;;;17.61;65.87
64388;BME280;50709;52.648;4.764;2023-05-10T02:58:13;100937.47;;;17.23;66.88
64388;BME280;50709;52.648;4.764;2023-05-10T03:00:39;100919.09;;;16.80;67.26
64388;BME280;50709;52.648;4.764;2023-05-10T03:03:04;100924.34;;;17.21;67.58
64388;BME280;50709;52.648;4.764;2023-05-10T03:05:30;100932.13;;;16.87;67.20
64388;BME280;50709;52.648;4.764;2023-05-10T03:07:56;100931.84;;;17.37;67.81
64388;BME280;50709;52.648;4.764;2023-05-10T03:10:26;100923.22;;;17.30;66.67
64388;BME280;50709;52.648;4.764;2023-05-10T03:13:26;100927.06;;;17.53;67.39
64388;BME280;50709;52.648;4.764;2023-05-10T03:15:59;100929.44;;;17.27;66.62
64388;BME280;50709;52.648;4.764;2023-05-10T03:18:47;100926.25;;;17.14;67.69
64388;BME280;50709;52.648;4.764;2023-05-10T03:21:17;100932.09;;;17.27;68.14
64388;BME280;50709;52.648;4.764;2023-05-10T03:23:46;100905.19;;;17.13;67.51
64388;BME280;50709;52.648;4.764;2023-05-10T03:26:17;100919.78;;;16.89;66.77
64388;BME280;50709;52.648;4.764;2023-05-10T03:28:46;100924.88;;;17.34;67.64
64388;BME280;50709;52.648;4.764;2023-05-10T03:31:14;100942.31;;;17.41;68.26
64388;BME280;50709;52.648;4.764;2023-05-10T03:33:49;100936.72;;;17.18;67.72
64388;BME280;50709;52.648;4.764;2023-05-10T03:36:15;100942.75;;;16.84;68.07
64388;BME280;50709;52.648;4.764;2023-05-10T03:38:41;100935.03;;;16.74;68.79
64388;BME280;50709;52.648;4.764;2023-05-10T03:41:06;100938.53;;;16.76;68.55
64388;BME280;50709;52.648;4.764;2023-05-10T03:43:32;100917.63;;;16.67;67.93
64388;BME280;50709;52.648;4.764;2023-05-10T03:45:57;100934.97;;;16.77;70.01
64388;BME280;50709;52.648;4.764;2023-05-10T03:48:22;100941.28;;;17.11;69.05
64388;BME280;50709;52.648;4.764;2023-05-10T03:50:48;100930.22;;;16.95;67.80
64388;BME280;50709;52.648;4.764;2023-05-10T03:53:14;100934.53;;;16.97;67.89
64388;BME280;50709;52.648;4.764;2023-05-10T03:55:40;100928.47;;;16.95;68.37
64388;BME280;50709;52.648;4.764;2023-05-10T03:58:06;100941.69;;;17.30;68.00
64388;BME280;50709;52.648;4.764;2023-05-10T04:00:31;100936.84;;;17.13;67.58
64388;BME280;50709;52.648;4.764;2023-05-10T04:02:57;100940.97;;;17.25;67.72
64388;BME280;50709;52.648;4.764;2023-05-10T04:05:23;100951.09;;;17.04;68.74
64388;BME280;50709;52.648;4.764;2023-05-10T04:07:48;100941.44;;;17.05;68.10
64388;BME280;50709;52.648;4.764;2023-05-10T04:10:15;100955.16;;;17.19;67.69
64388;BME280;50709;52.648;4.764;2023-05-10T04:12:41;100948.00;;;17.24;68.27
64388;BME280;50709;52.648;4.764;2023-05-10T04:15:07;100953.50;;;17.15;68.28
64388;BME280;50709;52.648;4.764;2023-05-10T04:17:33;100945.00;;;17.02;67.11
64388;BME280;50709;52.648;4.764;2023-05-10T04:19:58;100950.97;;;17.10;67.37
64388;BME280;50709;52.648;4.764;2023-05-10T04:22:23;100949.06;;;17.17;68.24
64388;BME280;50709;52.648;4.764;2023-05-10T04:24:49;100946.16;;;16.89;67.88
64388;BME280;50709;52.648;4.764;2023-05-10T04:27:14;100954.97;;;16.88;67.79
64388;BME280;50709;52.648;4.764;2023-05-10T04:29:39;100942.53;;;16.94;68.14
64388;BME280;50709;52.648;4.764;2023-05-10T04:32:05;100960.47;;;16.77;68.17
64388;BME280;50709;52.648;4.764;2023-05-10T04:34:30;100967.53;;;16.76;68.00
64388;BME280;50709;52.648;4.764;2023-05-10T04:36:56;100957.88;;;16.75;68.96
64388;BME280;50709;52.648;4.764;2023-05-10T04:39:21;100963.84;;;16.84;68.16
64388;BME280;50709;52.648;4.764;2023-05-10T04:41:46;100961.34;;;16.77;67.86
64388;BME280;50709;52.648;4.764;2023-05-10T04:44:12;100958.63;;;16.38;67.35
64388;BME280;50709;52.648;4.764;2023-05-10T04:46:37;100968.28;;;16.81;69.27
64388;BME280;50709;52.648;4.764;2023-05-10T04:49:02;100970.16;;;16.76;68.47
64388;BME280;50709;52.648;4.764;2023-05-10T04:51:28;100979.22;;;16.64;69.18
64388;BME280;50709;52.648;4.764;2023-05-10T04:53:53;100976.31;;;16.77;68.47
64388;BME280;50709;52.648;4.764;2023-05-10T04:56:18;100977.66;;;16.98;68.46
64388;BME280;50709;52.648;4.764;2023-05-10T04:58:44;100973.97;;;17.05;68.92
64388;BME280;50709;52.648;4.764;2023-05-10T05:01:09;100982.81;;;17.03;68.77
64388;BME280;50709;52.648;4.764;2023-05-10T05:03:36;100974.34;;;17.26;67.83
64388;BME280;50709;52.648;4.764;2023-05-10T05:06:02;100983.75;;;17.00;67.77
64388;BME280;50709;52.648;4.764;2023-05-10T05:08:27;100990.56;;;17.10;67.82
64388;BME280;50709;52.648;4.764;2023-05-10T05:10:53;100986.53;;;16.94;67.61
64388;BME280;50709;52.648;4.764;2023-05-10T05:13:18;100993.94;;;17.55;67.92
64388;BME280;50709;52.648;4.764;2023-05-10T05:15:44;100994.28;;;18.11;65.58
64388;BME280;50709;52.648;4.764;2023-05-10T05:18:09;100987.47;;;18.34;64.44
64388;BME280;50709;52.648;4.764;2023-05-10T05:20:35;101002.06;;;18.16;63.53
64388;BME280;50709;52.648;4.764;2023-05-10T05:23:00;101004.00;;;17.73;64.89
64388;BME280;50709;52.648;4.764;2023-05-10T05:25:26;101001.31;;;17.40;65.47
64388;BME280;50709;52.648;4.764;2023-05-10T05:27:51;101006.16;;;17.21;66.12
64388;BME280;50709;52.648;4.764;2023-05-10T05:30:17;101004.03;;;16.98;66.71
64388;BME280;50709;52.648;4.764;2023-05-10T05:32:42;101013.91;;;16.87;67.23
64388;BME280;50709;52.648;4.764;2023-05-10T05:35:08;101023.59;;;16.86;67.88
64388;BME280;50709;52.648;4.764;2023-05-10T05:37:33;101014.81;;;16.84;67.97
64388;BME280;50709;52.648;4.764;2023-05-10T05:39:59;101018.66;;;16.69;68.61
64388;BME280;50709;52.648;4.764;2023-05-10T05:42:27;101021.31;;;16.68;68.02
64388;BME280;50709;52.648;4.764;2023-05-10T05:44:52;101020.56;;;16.61;68.38
64388;BME280;50709;52.648;4.764;2023-05-10T05:47:18;101018.84;;;16.61;69.50
64388;BME280;50709;52.648;4.764;2023-05-10T05:49:43;101017.75;;;16.70;68.78
64388;BME280;50709;52.648;4.764;2023-05-10T05:52:11;101019.16;;;16.87;68.71
64388;BME280;50709;52.648;4.764;2023-05-10T05:54:36;101008.88;;;16.74;68.43
64388;BME280;50709;52.648;4.764;2023-05-10T05:57:02;101022.84;;;16.79;68.68
64388;BME280;50709;52.648;4.764;2023-05-10T05:59:27;101015.44;;;16.55;68.41
64388;BME280;50709;52.648;4.764;2023-05-10T06:01:53;101023.81;;;16.75;68.87
64388;BME280;50709;52.648;4.764;2023-05-10T06:04:18;101029.75;;;16.85;67.94
64388;BME280;50709;52.648;4.764;2023-05-10T06:06:44;101035.13;;;16.80;68.56
64388;BME280;50709;52.648;4.764;2023-05-10T06:09:09;101017.88;;;16.64;69.16
64388;BME280;50709;52.648;4.764;2023-05-10T06:11:35;101036.53;;;16.55;69.75
64388;BME280;50709;52.648;4.764;2023-05-10T06:14:01;101031.13;;;16.61;69.05
64388;BME280;50709;52.648;4.764;2023-05-10T06:16:27;101043.34;;;16.65;69.09
64388;BME280;50709;52.648;4.764;2023-05-10T06:18:53;101010.91;;;16.60;69.38
64388;BME280;50709;52.648;4.764;2023-05-10T06:21:18;101035.41;;;16.68;69.28
64388;BME280;50709;52.648;4.764;2023-05-10T06:23:44;101035.28;;;16.73;68.56
64388;BME280;50709;52.648;4.764;2023-05-10T06:26:09;101045.84;;;16.73;69.06
64388;BME280;50709;52.648;4.764;2023-05-10T06:28:35;101049.50;;;16.64;69.26
64388;BME280;50709;52.648;4.764;2023-05-10T06:31:03;101040.75;;;16.63;69.64
64388;BME280;50709;52.648;4.764;2023-05-10T06:33:29;101005.91;;;16.47;69.13
64388;BME280;50709;52.648;4.764;2023-05-10T06:35:54;101036.63;;;16.95;68.78
64388;BME280;50709;52.648;4.764;2023-05-10T06:38:19;101044.06;;;16.73;68.21
64388;BME280;50709;52.648;4.764;2023-05-10T06:40:45;101054.47;;;16.81;68.88
64388;BME280;50709;52.648;4.764;2023-05-10T06:43:10;101048.09;;;16.93;68.51
64388;BME280;50709;52.648;4.764;2023-05-10T06:45:36;101048.09;;;16.93;68.12
64388;BME280;50709;52.648;4.764;2023-05-10T06:48:02;101054.19;;;16.95;67.72
64388;BME280;50709;52.648;4.764;2023-05-10T06:50:27;101049.88;;;16.91;67.83
64388;BME280;50709;52.648;4.764;2023-05-10T06:52:53;101062.06;;;16.98;67.57
64388;BME280;50709;52.648;4.764;2023-05-10T06:55:18;101072.44;;;17.07;67.58
64388;BME280;50709;52.648;4.764;2023-05-10T06:57:44;101067.88;;;17.14;66.97
64388;BME280;50709;52.648;4.764;2023-05-10T07:00:09;101063.06;;;17.33;67.21
64388;BME280;50709;52.648;4.764;2023-05-10T07:02:35;101047.81;;;17.07;67.23
64388;BME280;50709;52.648;4.764;2023-05-10T07:05:01;101064.75;;;16.96;67.56
64388;BME280;50709;52.648;4.764;2023-05-10T07:07:27;101063.63;;;17.07;67.60
64388;BME280;50709;52.648;4.764;2023-05-10T07:09:53;101079.06;;;17.25;66.71
64388;BME280;50709;52.648;4.764;2023-05-10T07:12:18;101087.22;;;17.14;67.28
64388;BME280;50709;52.648;4.764;2023-05-10T07:14:43;101072.56;;;17.01;68.03
64388;BME280;50709;52.648;4.764;2023-05-10T07:17:09;101084.44;;;17.22;67.33
64388;BME280;50709;52.648;4.764;2023-05-10T07:19:35;101082.91;;;17.10;67.93
64388;BME280;50709;52.648;4.764;2023-05-10T07:22:01;101073.38;;;17.03;67.77
64388;BME280;50709;52.648;4.764;2023-05-10T07:24:26;101078.16;;;16.82;67.69
64388;BME280;50709;52.648;4.764;2023-05-10T07:26:52;101078.56;;;17.08;67.61
64388;BME280;50709;52.648;4.764;2023-05-10T07:29:17;101090.03;;;17.07;68.21
64388;BME280;50709;52.648;4.764;2023-05-10T07:31:43;101085.63;;;17.07;68.31
64388;BME280;50709;52.648;4.764;2023-05-10T07:34:08;101083.03;;;17.04;68.15
64388;BME280;50709;52.648;4.764;2023-05-10T07:36:34;101079.19;;;17.19;67.09
64388;BME280;50709;52.648;4.764;2023-05-10T07:39:00;101078.22;;;17.23;67.80
64388;BME280;50709;52.648;4.764;2023-05-10T07:41:25;101077.56;;;17.13;67.59
64388;BME280;50709;52.648;4.764;2023-05-10T07:43:51;101083.38;;;17.29;67.34
64388;BME280;50709;52.648;4.764;2023-05-10T07:46:16;101069.69;;;17.12;67.82
64388;BME280;50709;52.648;4.764;2023-05-10T07:48:41;101076.41;;;17.27;67.32
64388;BME280;50709;52.648;4.764;2023-05-10T07:51:07;101088.13;;;17.53;66.76
64388;BME280;50709;52.648;4.764;2023-05-10T07:53:34;101084.00;;;17.41;66.85
64388;BME280;50709;52.648;4.764;2023-05-10T07:56:23;101085.69;;;17.43;66.80
64388;BME280;50709;52.648;4.764;2023-05-10T07:58:50;101085.91;;;17.36;67.38
64388;BME280;50709;52.648;4.764;2023-05-10T08:01:16;101090.69;;;17.18;67.11
64388;BME280;50709;52.648;4.764;2023-05-10T08:03:41;101096.09;;;17.51;66.52
64388;BME280;50709;52.648;4.764;2023-05-10T08:06:07;101097.34;;;17.35;66.27
64388;BME280;50709;52.648;4.764;2023-05-10T08:08:32;101097.06;;;17.47;66.62
64388;BME280;50709;52.648;4.764;2023-05-10T08:10:58;101091.75;;;17.48;66.26
64388;BME280;50709;52.648;4.764;2023-05-10T08:13:23;101111.81;;;17.56;66.47
64388;BME280;50709;52.648;4.764;2023-05-10T08:15:48;101102.31;;;17.48;66.85
64388;BME280;50709;52.648;4.764;2023-05-10T08:18:14;101103.25;;;17.46;66.49
64388;BME280;50709;52.648;4.764;2023-05-10T08:20:39;101092.59;;;17.49;66.21
64388;BME280;50709;52.648;4.764;2023-05-10T08:23:05;101077.66;;;17.49;66.40
64388;BME280;50709;52.648;4.764;2023-05-10T08:25:31;101075.16;;;17.43;65.81
64388;BME280;50709;52.648;4.764;2023-05-10T08:27:56;101110.13;;;17.91;65.44
64388;BME280;50709;52.648;4.764;2023-05-10T08:30:21;101123.31;;;17.94;64.76
64388;BME280;50709;52.648;4.764;2023-05-10T08:32:47;101115.97;;;17.68;65.38
64388;BME280;50709;52.648;4.764;2023-05-10T08:35:12;101120.97;;;17.80;66.08
64388;BME280;50709;52.648;4.764;2023-05-10T08:37:38;101120.91;;;17.83;65.81
64388;BME280;50709;52.648;4.764;2023-05-10T08:40:03;101130.72;;;17.78;65.86
64388;BME280;50709;52.648;4.764;2023-05-10T08:42:30;101123.84;;;17.69;66.26
64388;BME280;50709;52.648;4.764;2023-05-10T08:44:59;101131.41;;;17.86;65.83
64388;BME280;50709;52.648;4.764;2023-05-10T08:47:25;101133.94;;;17.92;64.85
64388;BME280;50709;52.648;4.764;2023-05-10T08:49:51;101131.31;;;17.89;65.15
64388;BME280;50709;52.648;4.764;2023-05-10T08:52:18;101129.03;;;17.74;65.23
64388;BME280;50709;52.648;4.764;2023-05-10T08:54:43;101117.13;;;17.95;64.83
64388;BME280;50709;52.648;4.764;2023-05-10T08:57:10;101143.00;;;18.16;64.40
64388;BME280;50709;52.648;4.764;2023-05-10T08:59:36;101149.16;;;18.19;64.74
64388;BME280;50709;52.648;4.764;2023-05-10T09:02:05;101153.31;;;18.27;64.52
64388;BME280;50709;52.648;4.764;2023-05-10T09:04:31;101159.50;;;18.28;64.26
64388;BME280;50709;52.648;4.764;2023-05-10T09:06:56;101158.47;;;18.33;64.22
64388;BME280;50709;52.648;4.764;2023-05-10T09:09:23;101148.75;;;18.34;64.12
64388;BME280;50709;52.648;4.764;2023-05-10T09:11:49;101159.50;;;18.28;64.53
64388;BME280;50709;52.648;4.764;2023-05-10T09:14:15;101163.00;;;18.28;63.88
64388;BME280;50709;52.648;4.764;2023-05-10T09:16:40;101161.56;;;18.51;63.42
64388;BME280;50709;52.648;4.764;2023-05-10T09:19:06;101171.09;;;18.57;63.50
64388;BME280;50709;52.648;4.764;2023-05-10T09:21:35;101164.81;;;18.61;63.23
64388;BME280;50709;52.648;4.764;2023-05-10T09:24:04;101182.56;;;18.57;63.46
64388;BME280;50709;52.648;4.764;2023-05-10T09:26:30;101181.72;;;18.55;63.47
64388;BME280;50709;52.648;4.764;2023-05-10T09:28:57;101148.66;;;18.39;63.55
64388;BME280;50709;52.648;4.764;2023-05-10T09:31:23;101188.09;;;18.48;63.97
64388;BME280;50709;52.648;4.764;2023-05-10T09:33:51;101188.56;;;18.28;63.89
64388;BME280;50709;52.648;4.764;2023-05-10T09:36:17;101184.91;;;18.33;64.42
64388;BME280;50709;52.648;4.764;2023-05-10T09:38:50;101190.31;;;18.29;64.52
64388;BME280;50709;52.648;4.764;2023-05-10T09:41:21;101204.09;;;18.42;64.08
64388;BME280;50709;52.648;4.764;2023-05-10T09:43:47;101193.59;;;18.39;63.11
64388;BME280;50709;52.648;4.764;2023-05-10T09:46:12;101200.28;;;18.54;63.91
64388;BME280;50709;52.648;4.764;2023-05-10T09:48:43;101196.78;;;18.52;63.50
64388;BME280;50709;52.648;4.764;2023-05-10T09:51:09;101194.75;;;18.63;63.35
64388;BME280;50709;52.648;4.764;2023-05-10T09:53:35;101202.03;;;18.55;63.27
64388;BME280;50709;52.648;4.764;2023-05-10T09:56:00;101206.56;;;18.49;63.96
64388;BME280;50709;52.648;4.764;2023-05-10T09:58:26;101217.81;;;18.58;63.77
64388;BME280;50709;52.648;4.764;2023-05-10T10:00:52;101211.25;;;18.73;63.12
64388;BME280;50709;52.648;4.764;2023-05-10T10:03:20;101218.69;;;18.57;64.04
64388;BME280;50709;52.648;4.764;2023-05-10T10:05:47;101184.56;;;18.11;64.55
64388;BME280;50709;52.648;4.764;2023-05-10T10:08:13;101192.28;;;18.19;63.47
64388;BME280;50709;52.648;4.764;2023-05-10T10:10:39;101199.91;;;18.33;63.69
64388;BME280;50709;52.648;4.764;2023-05-10T10:13:10;101213.41;;;18.57;63.35
64388;BME280;50709;52.648;4.764;2023-05-10T10:15:36;101215.25;;;18.55;63.61
64388;BME280;50709;52.648;4.764;2023-05-10T10:18:02;101230.75;;;18.69;63.34
64388;BME280;50709;52.648;4.764;2023-05-10T10:20:29;101218.31;;;18.72;62.92
64388;BME280;50709;52.648;4.764;2023-05-10T10:22:54;101236.31;;;18.58;63.80
64388;BME280;50709;52.648;4.764;2023-05-10T10:25:21;101226.59;;;18.60;63.34
64388;BME280;50709;52.648;4.764;2023-05-10T10:28:02;101237.31;;;18.54;63.89
64388;BME280;50709;52.648;4.764;2023-05-10T10:30:49;101216.41;;;18.43;63.55
64388;BME280;50709;52.648;4.764;2023-05-10T10:36:09;101235.00;;;18.40;63.06
64388;BME280;50709;52.648;4.764;2023-05-10T10:41:34;101230.22;;;18.54;63.66
64388;BME280;50709;52.648;4.764;2023-05-10T10:49:49;101238.19;;;18.53;63.77
64388;BME280;50709;52.648;4.764;2023-05-10T10:55:13;101230.91;;;18.62;63.47
64388;BME280;50709;52.648;4.764;2023-05-10T10:57:45;101239.56;;;18.69;63.26
64388;BME280;50709;52.648;4.764;2023-05-10T11:00:21;101245.88;;;18.63;63.31
64388;BME280;50709;52.648;4.764;2023-05-10T11:02:48;101233.31;;;18.72;63.05
64388;BME280;50709;52.648;4.764;2023-05-10T11:07:59;101215.22;;;18.91;62.45
64388;BME280;50709;52.648;4.764;2023-05-10T11:10:25;101196.69;;;18.56;62.73
64388;BME280;50709;52.648;4.764;2023-05-10T11:13:02;101218.16;;;18.78;62.17
64388;BME280;50709;52.648;4.764;2023-05-10T11:15:39;101241.91;;;19.16;61.89
64388;BME280;50709;52.648;4.764;2023-05-10T11:18:23;101234.66;;;18.90;62.06
64388;BME280;50709;52.648;4.764;2023-05-10T11:23:20;101234.88;;;18.80;62.15
64388;BME280;50709;52.648;4.764;2023-05-10T11:25:47;101212.66;;;18.86;62.43
64388;BME280;50709;52.648;4.764;2023-05-10T11:28:13;101241.28;;;19.06;62.25
64388;BME280;50709;52.648;4.764;2023-05-10T11:30:40;101209.38;;;19.11;61.46
64388;BME280;50709;52.648;4.764;2023-05-10T11:33:07;101231.09;;;19.24;61.19
64388;BME280;50709;52.648;4.764;2023-05-10T11:35:39;101238.34;;;19.17;61.13
64388;BME280;50709;52.648;4.764;2023-05-10T11:38:08;101232.88;;;19.23;61.69
64388;BME280;50709;52.648;4.764;2023-05-10T11:40:34;101225.34;;;19.08;60.89
64388;BME280;50709;52.648;4.764;2023-05-10T11:43:00;101239.13;;;19.21;61.29
64388;BME280;50709;52.648;4.764;2023-05-10T11:45:26;101243.13;;;19.36;60.70
64388;BME280;50709;52.648;4.764;2023-05-10T11:47:53;101239.84;;;19.27;61.32
64388;BME280;50709;52.648;4.764;2023-05-10T11:50:18;101228.69;;;19.14;61.67
64388;BME280;50709;52.648;4.764;2023-05-10T11:52:44;101234.88;;;19.46;60.78
64388;BME280;50709;52.648;4.764;2023-05-10T11:55:09;101245.13;;;19.59;60.29
64388;BME280;50709;52.648;4.764;2023-05-10T11:57:35;101218.84;;;19.20;59.29
64388;BME280;50709;52.648;4.764;2023-05-10T12:00:03;101240.13;;;19.16;60.66
64388;BME280;50709;52.648;4.764;2023-05-10T12:02:29;101252.78;;;19.38;60.45
64388;BME280;50709;52.648;4.764;2023-05-10T12:04:55;101250.09;;;19.40;60.79
64388;BME280;50709;52.648;4.764;2023-05-10T12:07:21;101256.44;;;19.32;61.03
64388;BME280;50709;52.648;4.764;2023-05-10T12:10:06;101259.47;;;19.52;60.96
64388;BME280;50709;52.648;4.764;2023-05-10T12:12:37;101275.31;;;19.53;60.96
64388;BME280;50709;52.648;4.764;2023-05-10T12:15:03;101258.53;;;19.53;61.04
64388;BME280;50709;52.648;4.764;2023-05-10T12:17:29;101263.72;;;19.57;61.05
64388;BME280;50709;52.648;4.764;2023-05-10T12:19:59;101261.28;;;19.49;60.68
64388;BME280;50709;52.648;4.764;2023-05-10T12:22:24;101277.22;;;19.48;61.31
64388;BME280;50709;52.648;4.764;2023-05-10T12:24:50;101276.72;;;19.65;60.96
64388;BME280;50709;52.648;4.764;2023-05-10T12:27:15;101277.13;;;19.82;60.14
64388;BME280;50709;52.648;4.764;2023-05-10T12:29:41;101279.16;;;19.73;60.24
64388;BME280;50709;52.648;4.764;2023-05-10T12:32:09;101269.25;;;19.79;60.31
64388;BME280;50709;52.648;4.764;2023-05-10T12:34:35;101271.47;;;19.63;59.76
64388;BME280;50709;52.648;4.764;2023-05-10T12:37:04;101259.22;;;19.59;60.33
64388;BME280;50709;52.648;4.764;2023-05-10T12:42:05;101279.03;;;19.77;60.28
64388;BME280;50709;52.648;4.764;2023-05-10T12:44:31;101282.25;;;19.89;60.07
64388;BME280;50709;52.648;4.764;2023-05-10T12:46:56;101288.28;;;19.94;59.87
64388;BME280;50709;52.648;4.764;2023-05-10T12:49:21;101287.56;;;19.89;58.95
64388;BME280;50709;52.648;4.764;2023-05-10T12:51:47;101280.66;;;19.83;59.65
64388;BME280;50709;52.648;4.764;2023-05-10T12:54:12;101274.47;;;19.84;59.83
64388;BME280;50709;52.648;4.764;2023-05-10T12:56:40;101270.97;;;19.82;59.78
64388;BME280;50709;52.648;4.764;2023-05-10T12:59:07;101271.09;;;19.76;60.20
64388;BME280;50709;52.648;4.764;2023-05-10T13:01:33;101276.69;;;19.98;59.07
64388;BME280;50709;52.648;4.764;2023-05-10T13:03:58;101290.88;;;19.95;59.52
64388;BME280;50709;52.648;4.764;2023-05-10T13:06:25;101287.38;;;19.95;59.67
64388;BME280;50709;52.648;4.764;2023-05-10T13:08:50;101286.53;;;19.93;57.48
64388;BME280;50709;52.648;4.764;2023-05-10T13:11:16;101277.69;;;19.94;59.73
64388;BME280;50709;52.648;4.764;2023-05-10T13:13:42;101293.75;;;20.17;59.24
64388;BME280;50709;52.648;4.764;2023-05-10T13:16:07;101283.72;;;19.99;59.47
64388;BME280;50709;52.648;4.764;2023-05-10T13:18:33;101282.38;;;20.14;58.00
64388;BME280;50709;52.648;4.764;2023-05-10T13:20:58;101290.47;;;20.09;58.61
64388;BME280;50709;52.648;4.764;2023-05-10T13:23:24;101297.03;;;20.26;58.62